createdAt,value
2022-08-23T00:00:35.879Z,17.92
2022-08-23T00:01:35.859Z,17.92
2022-08-23T00:02:35.892Z,17.92
2022-08-23T00:03:35.841Z,17.95
2022-08-23T00:04:35.806Z,17.97
2022-08-23T00:05:35.811Z,17.94
2022-08-23T00:06:35.699Z,17.97
2022-08-23T00:07:38.413Z,17.90
2022-08-23T00:08:35.664Z,17.98
2022-08-23T00:09:35.641Z,17.98
2022-08-23T00:10:35.593Z,17.98
2022-08-23T00:11:35.640Z,17.97
2022-08-23T00:12:35.632Z,17.95
2022-08-23T00:13:47.854Z,17.95
2022-08-23T00:14:35.829Z,17.97
2022-08-23T00:15:35.454Z,17.92
2022-08-23T00:16:35.447Z,17.95
2022-08-23T00:17:35.451Z,17.92
2022-08-23T00:18:35.403Z,17.87
2022-08-23T00:19:35.362Z,18.00
2022-08-23T00:20:35.312Z,17.97
2022-08-23T00:21:35.279Z,17.89
2022-08-23T00:22:35.397Z,17.97
2022-08-23T00:23:35.288Z,17.98
2022-08-23T00:24:39.118Z,17.95
2022-08-23T00:25:35.189Z,17.95
2022-08-23T00:26:35.150Z,17.98
2022-08-23T00:27:35.155Z,17.98
2022-08-23T00:28:35.083Z,17.90
2022-08-23T00:29:35.121Z,17.95
2022-08-23T00:30:35.048Z,17.97
2022-08-23T00:31:35.089Z,17.94
2022-08-23T00:32:34.980Z,18.07
2022-08-23T00:33:34.943Z,18.03
2022-08-23T00:34:34.948Z,17.97
2022-08-23T00:35:34.885Z,17.98
2022-08-23T00:36:34.852Z,18.01
2022-08-23T00:37:34.908Z,17.97
2022-08-23T00:38:35.198Z,17.92
2022-08-23T00:39:34.782Z,18.00
2022-08-23T00:40:34.746Z,17.92
2022-08-23T00:41:34.724Z,18.04
2022-08-23T00:42:44.338Z,18.00
2022-08-23T00:43:34.761Z,18.05
2022-08-23T00:44:34.637Z,18.08
2022-08-23T00:45:34.599Z,18.11
2022-08-23T00:46:34.625Z,18.03
2022-08-23T00:47:34.540Z,18.01
2022-08-23T00:48:34.515Z,18.08
2022-08-23T00:49:34.582Z,18.08
2022-08-23T00:50:34.497Z,18.00
2022-08-23T00:51:39.213Z,17.97
2022-08-23T00:52:34.427Z,17.90
2022-08-23T00:53:34.374Z,17.98
2022-08-23T00:54:34.348Z,18.04
2022-08-23T00:55:34.408Z,18.04
2022-08-23T00:56:34.304Z,18.01
2022-08-23T00:57:34.296Z,18.01
2022-08-23T00:58:34.222Z,17.90
2022-08-23T00:59:34.209Z,17.87
2022-08-23T01:00:34.175Z,17.95
2022-08-23T01:01:34.242Z,17.95
2022-08-23T01:02:34.130Z,17.90
2022-08-23T01:03:38.702Z,17.89
2022-08-23T01:04:34.066Z,17.94
2022-08-23T01:05:34.042Z,17.94
2022-08-23T01:06:34.118Z,17.90
2022-08-23T01:07:33.998Z,17.85
2022-08-23T01:08:33.954Z,17.82
2022-08-23T01:09:33.926Z,17.82
2022-08-23T01:10:33.887Z,17.76
2022-08-23T01:11:33.854Z,17.78
2022-08-23T01:12:33.926Z,17.79
2022-08-23T01:13:33.811Z,17.72
2022-08-23T01:14:33.770Z,17.70
2022-08-23T01:15:33.754Z,17.68
2022-08-23T01:16:33.732Z,17.65
2022-08-23T01:17:33.688Z,17.67
2022-08-23T01:18:33.727Z,17.67
2022-08-23T01:19:33.631Z,17.68
2022-08-23T01:20:33.603Z,17.65
2022-08-23T01:21:33.573Z,17.65
2022-08-23T01:22:33.574Z,17.67
2022-08-23T01:23:33.520Z,17.70
2022-08-23T01:25:06.313Z,17.68
2022-08-23T01:25:33.483Z,17.60
2022-08-23T01:26:33.427Z,17.70
2022-08-23T01:27:33.397Z,17.65
2022-08-23T01:28:33.405Z,17.72
2022-08-23T01:29:33.427Z,17.59
2022-08-23T01:30:33.377Z,17.67
2022-08-23T01:31:33.289Z,17.54
2022-08-23T01:32:33.274Z,17.63
2022-08-23T01:33:33.225Z,17.67
2022-08-23T01:34:35.195Z,17.57
2022-08-23T01:35:33.291Z,17.63
2022-08-23T01:36:33.139Z,17.63
2022-08-23T01:37:33.115Z,17.67
2022-08-23T01:38:33.085Z,17.70
2022-08-23T01:39:33.060Z,17.70
2022-08-23T01:40:37.856Z,17.68
2022-08-23T01:41:33.099Z,17.70
2022-08-23T01:42:32.973Z,17.67
2022-08-23T01:43:32.938Z,17.71
2022-08-23T01:44:32.956Z,17.83
2022-08-23T01:45:32.901Z,17.76
2022-08-23T01:46:32.860Z,17.82
2022-08-23T01:47:32.889Z,17.83
2022-08-23T01:48:32.800Z,17.85
2022-08-23T01:49:32.804Z,17.86
2022-08-23T01:50:32.823Z,17.89
2022-08-23T01:51:32.763Z,17.89
2022-08-23T01:52:32.744Z,17.95
2022-08-23T01:53:32.710Z,17.92
2022-08-23T01:54:32.654Z,17.95
2022-08-23T01:55:32.604Z,17.94
2022-08-23T01:56:38.573Z,17.98
2022-08-23T01:57:32.539Z,18.01
2022-08-23T01:58:32.591Z,18.01
2022-08-23T01:59:32.638Z,17.98
2022-08-23T02:00:32.450Z,17.90
2022-08-23T02:01:32.467Z,17.97
2022-08-23T02:02:32.419Z,18.00
2022-08-23T02:03:32.433Z,17.95
2022-08-23T02:04:32.374Z,17.90
2022-08-23T02:05:32.378Z,17.90
2022-08-23T02:06:32.282Z,17.90
2022-08-23T02:07:32.266Z,17.98
2022-08-23T02:08:32.241Z,18.04
2022-08-23T02:09:32.292Z,18.05
2022-08-23T02:10:32.181Z,18.01
2022-08-23T02:11:32.184Z,18.01
2022-08-23T02:12:32.106Z,17.97
2022-08-23T02:13:32.083Z,18.05
2022-08-23T02:14:32.137Z,18.05
2022-08-23T02:15:32.031Z,18.13
2022-08-23T02:16:32.008Z,18.08
2022-08-23T02:17:32.000Z,18.07
2022-08-23T02:18:31.956Z,18.04
2022-08-23T02:19:31.911Z,18.08
2022-08-23T02:20:31.972Z,18.11
2022-08-23T02:21:31.860Z,18.05
2022-08-23T02:22:31.824Z,18.18
2022-08-23T02:23:31.808Z,18.23
2022-08-23T02:24:31.947Z,18.15
2022-08-23T02:25:31.742Z,18.16
2022-08-23T02:26:31.767Z,18.19
2022-08-23T02:27:31.685Z,18.20
2022-08-23T02:28:31.648Z,18.13
2022-08-23T02:29:31.631Z,18.18
2022-08-23T02:30:31.604Z,18.22
2022-08-23T02:31:31.581Z,18.16
2022-08-23T02:32:31.605Z,18.25
2022-08-23T02:33:31.512Z,18.23
2022-08-23T02:34:31.478Z,18.22
2022-08-23T02:35:31.450Z,18.20
2022-08-23T02:36:31.420Z,18.18
2022-08-23T02:37:31.384Z,18.19
2022-08-23T02:38:31.419Z,18.22
2022-08-23T02:39:31.330Z,18.19
2022-08-23T02:40:31.307Z,18.16
2022-08-23T02:41:31.318Z,18.20
2022-08-23T02:42:31.245Z,18.16
2022-08-23T02:43:31.302Z,18.19
2022-08-23T02:44:31.209Z,18.19
2022-08-23T02:45:31.168Z,18.20
2022-08-23T02:46:31.133Z,18.07
2022-08-23T02:47:31.113Z,18.13
2022-08-23T02:48:31.071Z,18.10
2022-08-23T02:49:31.105Z,18.20
2022-08-23T02:50:31.079Z,18.13
2022-08-23T02:51:31.000Z,18.13
2022-08-23T02:52:30.986Z,18.20
2022-08-23T02:53:30.923Z,18.20
2022-08-23T02:54:30.900Z,18.18
2022-08-23T02:55:30.966Z,18.23
2022-08-23T02:56:30.875Z,18.20
2022-08-23T02:57:31.446Z,18.22
2022-08-23T02:58:30.793Z,18.18
2022-08-23T02:59:30.756Z,18.22
2022-08-23T03:00:30.756Z,18.18
2022-08-23T03:01:30.764Z,18.15
2022-08-23T03:02:30.724Z,18.16
2022-08-23T03:03:30.646Z,18.16
2022-08-23T03:04:30.612Z,18.19
2022-08-23T03:05:30.586Z,18.19
2022-08-23T03:06:30.557Z,18.18
2022-08-23T03:07:30.598Z,18.18
2022-08-23T03:08:30.490Z,18.19
2022-08-23T03:09:30.475Z,18.19
2022-08-23T03:10:30.455Z,18.15
2022-08-23T03:11:30.425Z,18.19
2022-08-23T03:12:30.377Z,18.19
2022-08-23T03:13:30.460Z,18.18
2022-08-23T03:14:30.329Z,18.23
2022-08-23T03:15:30.302Z,18.13
2022-08-23T03:16:30.331Z,18.23
2022-08-23T03:17:30.260Z,18.13
2022-08-23T03:18:30.222Z,18.15
2022-08-23T03:19:30.263Z,18.07
2022-08-23T03:20:30.143Z,18.07
2022-08-23T03:21:30.120Z,18.08
2022-08-23T03:22:30.091Z,18.10
2022-08-23T03:23:30.079Z,18.15
2022-08-23T03:24:30.114Z,18.11
2022-08-23T03:25:30.007Z,18.07
2022-08-23T03:26:30.028Z,18.08
2022-08-23T03:27:29.965Z,18.13
2022-08-23T03:28:29.943Z,18.07
2022-08-23T03:29:29.898Z,18.10
2022-08-23T03:30:29.951Z,18.07
2022-08-23T03:31:31.247Z,18.10
2022-08-23T03:32:29.818Z,18.04
2022-08-23T03:33:29.780Z,18.08
2022-08-23T03:34:29.763Z,18.04
2022-08-23T03:35:29.719Z,18.13
2022-08-23T03:36:29.938Z,18.01
2022-08-23T03:37:29.666Z,18.07
2022-08-23T03:38:29.656Z,18.13
2022-08-23T03:39:29.609Z,18.01
2022-08-23T03:40:29.574Z,18.08
2022-08-23T03:41:29.550Z,18.03
2022-08-23T03:42:31.018Z,18.00
2022-08-23T03:43:29.503Z,18.04
2022-08-23T03:44:29.472Z,18.04
2022-08-23T03:45:29.470Z,18.01
2022-08-23T03:46:33.761Z,18.10
2022-08-23T03:47:29.387Z,18.03
2022-08-23T03:48:29.440Z,18.08
2022-08-23T03:49:29.313Z,18.04
2022-08-23T03:50:29.322Z,18.01
2022-08-23T03:51:29.273Z,18.04
2022-08-23T03:52:29.228Z,18.01
2022-08-23T03:53:31.402Z,17.95
2022-08-23T03:54:29.249Z,17.95
2022-08-23T03:55:29.171Z,17.92
2022-08-23T03:56:29.122Z,17.95
2022-08-23T03:57:29.104Z,17.89
2022-08-23T03:58:29.067Z,17.89
2022-08-23T03:59:29.105Z,17.90
2022-08-23T04:00:29.006Z,17.92
2022-08-23T04:01:29.135Z,17.92
2022-08-23T04:02:28.980Z,17.90
2022-08-23T04:03:28.913Z,17.94
2022-08-23T04:04:29.166Z,17.89
2022-08-23T04:05:28.859Z,18.01
2022-08-23T04:06:28.849Z,18.01
2022-08-23T04:07:28.796Z,18.04
2022-08-23T04:08:33.702Z,17.95
2022-08-23T04:09:28.756Z,17.95
2022-08-23T04:10:28.774Z,17.98
2022-08-23T04:11:28.688Z,17.87
2022-08-23T04:12:28.669Z,17.85
2022-08-23T04:13:28.652Z,17.98
2022-08-23T04:14:28.646Z,17.95
2022-08-23T04:15:28.649Z,17.90
2022-08-23T04:16:28.608Z,17.95
2022-08-23T04:17:32.096Z,17.86
2022-08-23T04:18:28.483Z,17.86
2022-08-23T04:19:28.456Z,17.85
2022-08-23T04:20:28.426Z,17.78
2022-08-23T04:21:28.478Z,17.78
2022-08-23T04:22:28.366Z,17.76
2022-08-23T04:23:28.337Z,17.82
2022-08-23T04:24:28.337Z,17.71
2022-08-23T04:25:34.244Z,17.72
2022-08-23T04:26:30.265Z,17.71
2022-08-23T04:27:28.271Z,17.67
2022-08-23T04:28:28.190Z,17.70
2022-08-23T04:29:33.927Z,17.68
2022-08-23T04:30:28.129Z,17.70
2022-08-23T04:31:28.118Z,17.65
2022-08-23T04:32:28.696Z,17.57
2022-08-23T04:33:28.076Z,17.63
2022-08-23T04:34:28.777Z,17.67
2022-08-23T04:35:27.982Z,17.56
2022-08-23T04:36:27.982Z,17.51
2022-08-23T04:37:28.170Z,17.54
2022-08-23T04:38:27.904Z,17.54
2022-08-23T04:39:27.874Z,17.60
2022-08-23T04:40:27.987Z,17.57
2022-08-23T04:41:27.805Z,17.54
2022-08-23T04:42:27.860Z,17.59
2022-08-23T04:43:28.156Z,17.54
2022-08-23T04:44:27.749Z,17.56
2022-08-23T04:45:27.693Z,17.59
2022-08-23T04:46:27.682Z,17.65
2022-08-23T04:47:27.660Z,17.59
2022-08-23T04:48:27.611Z,17.59
2022-08-23T04:49:27.644Z,17.64
2022-08-23T04:50:27.671Z,17.63
2022-08-23T04:51:28.919Z,17.57
2022-08-23T04:52:27.482Z,17.65
2022-08-23T04:53:27.454Z,17.57
2022-08-23T04:54:27.577Z,17.65
2022-08-23T04:55:27.443Z,17.64
2022-08-23T04:56:28.013Z,17.72
2022-08-23T04:57:27.367Z,17.65
2022-08-23T04:58:27.326Z,17.68
2022-08-23T04:59:27.936Z,17.64
2022-08-23T05:00:27.439Z,17.63
2022-08-23T05:01:27.336Z,17.64
2022-08-23T05:02:27.218Z,17.67
2022-08-23T05:03:27.259Z,17.68
2022-08-23T05:04:27.131Z,17.64
2022-08-23T05:05:27.122Z,17.60
2022-08-23T05:06:27.351Z,17.64
2022-08-23T05:07:30.982Z,17.64
2022-08-23T05:08:27.963Z,17.68
2022-08-23T05:09:27.005Z,17.68
2022-08-23T05:10:26.960Z,17.65
2022-08-23T05:11:26.939Z,17.68
2022-08-23T05:12:26.998Z,17.78
2022-08-23T05:13:26.947Z,17.76
2022-08-23T05:14:26.854Z,17.83
2022-08-23T05:15:26.873Z,17.80
2022-08-23T05:16:26.812Z,17.86
2022-08-23T05:17:26.862Z,17.92
2022-08-23T05:18:26.749Z,17.92
2022-08-23T05:19:26.721Z,17.90
2022-08-23T05:20:26.694Z,17.98
2022-08-23T05:21:26.651Z,17.92
2022-08-23T05:22:26.618Z,18.00
2022-08-23T05:23:31.624Z,17.95
2022-08-23T05:24:26.567Z,17.94
2022-08-23T05:25:26.533Z,18.07
2022-08-23T05:26:26.498Z,18.04
2022-08-23T05:27:26.461Z,18.07
2022-08-23T05:28:26.511Z,18.10
2022-08-23T05:29:26.435Z,18.13
2022-08-23T05:30:26.381Z,18.25
2022-08-23T05:31:26.355Z,18.20
2022-08-23T05:32:28.456Z,18.23
2022-08-23T05:33:26.289Z,18.19
2022-08-23T05:34:26.320Z,18.16
2022-08-23T05:35:26.232Z,18.31
2022-08-23T05:36:26.208Z,18.31
2022-08-23T05:37:26.173Z,18.40
2022-08-23T05:38:26.177Z,18.40
2022-08-23T05:39:32.837Z,18.45
2022-08-23T05:40:26.085Z,18.47
2022-08-23T05:41:38.186Z,18.45
2022-08-23T05:42:26.033Z,18.49
2022-08-23T05:43:26.001Z,18.56
2022-08-23T05:44:26.047Z,18.56
2022-08-23T05:45:25.945Z,18.58
2022-08-23T05:46:28.300Z,18.59
2022-08-23T05:47:25.883Z,18.62
2022-08-23T05:48:25.861Z,18.66
2022-08-23T05:49:25.920Z,18.63
2022-08-23T05:50:26.040Z,18.58
2022-08-23T05:51:25.771Z,18.60
2022-08-23T05:52:25.816Z,18.66
2022-08-23T05:53:25.713Z,18.63
2022-08-23T05:54:25.688Z,18.70
2022-08-23T05:55:34.669Z,18.66
2022-08-23T05:56:25.777Z,18.65
2022-08-23T05:57:25.597Z,18.71
2022-08-23T05:58:25.578Z,18.63
2022-08-23T05:59:25.547Z,18.74
2022-08-23T06:00:37.218Z,18.68
2022-08-23T06:01:25.523Z,18.66
2022-08-23T06:02:25.584Z,18.78
2022-08-23T06:03:25.431Z,18.70
2022-08-23T06:04:25.404Z,18.65
2022-08-23T06:05:25.378Z,18.68
2022-08-23T06:06:37.234Z,18.70
2022-08-23T06:07:25.320Z,18.65
2022-08-23T06:08:25.390Z,18.62
2022-08-23T06:09:25.262Z,18.65
2022-08-23T06:10:25.229Z,18.71
2022-08-23T06:11:25.208Z,18.66
2022-08-23T06:12:25.174Z,18.80
2022-08-23T06:13:25.144Z,18.75
2022-08-23T06:14:25.342Z,18.84
2022-08-23T06:15:25.087Z,18.74
2022-08-23T06:16:25.111Z,18.75
2022-08-23T06:17:25.032Z,18.92
2022-08-23T06:18:25.003Z,18.83
2022-08-23T06:19:25.068Z,18.95
2022-08-23T06:20:24.987Z,19.11
2022-08-23T06:21:24.927Z,19.18
2022-08-23T06:22:24.892Z,19.19
2022-08-23T06:23:24.859Z,19.26
2022-08-23T06:24:24.838Z,19.33
2022-08-23T06:25:24.878Z,19.30
2022-08-23T06:26:24.777Z,19.47
2022-08-23T06:27:24.750Z,19.58
2022-08-23T06:28:25.627Z,19.58
2022-08-23T06:29:24.743Z,19.67
2022-08-23T06:30:24.881Z,19.66
2022-08-23T06:31:24.722Z,19.69
2022-08-23T06:32:24.645Z,19.69
2022-08-23T06:33:24.625Z,19.58
2022-08-23T06:34:24.563Z,19.58
2022-08-23T06:35:39.015Z,19.66
2022-08-23T06:36:24.564Z,19.66
2022-08-23T06:37:24.478Z,19.64
2022-08-23T06:38:24.453Z,19.69
2022-08-23T06:39:24.494Z,19.76
2022-08-23T06:40:24.511Z,19.79
2022-08-23T06:41:24.369Z,19.86
2022-08-23T06:42:39.364Z,19.82
2022-08-23T06:43:24.316Z,19.92
2022-08-23T06:44:24.286Z,19.94
2022-08-23T06:45:33.826Z,20.14
2022-08-23T06:46:24.317Z,20.13
2022-08-23T06:47:24.199Z,20.18
2022-08-23T06:48:24.176Z,20.28
2022-08-23T06:49:24.152Z,20.18
2022-08-23T06:50:24.128Z,20.18
2022-08-23T06:51:24.620Z,20.10
2022-08-23T06:52:24.071Z,20.13
2022-08-23T06:53:24.044Z,20.06
2022-08-23T06:54:24.017Z,20.09
2022-08-23T06:55:24.003Z,20.02
2022-08-23T06:56:24.088Z,20.16
2022-08-23T06:57:23.989Z,20.00
2022-08-23T06:58:23.911Z,20.11
2022-08-23T06:59:23.882Z,20.16
2022-08-23T07:00:24.454Z,20.31
2022-08-23T07:01:44.594Z,20.40
2022-08-23T07:02:24.142Z,20.43
2022-08-23T07:03:23.783Z,20.43
2022-08-23T07:04:23.752Z,20.28
2022-08-23T07:05:23.725Z,20.16
2022-08-23T07:06:23.697Z,20.16
2022-08-23T07:07:23.740Z,20.19
2022-08-23T07:08:23.909Z,20.18
2022-08-23T07:09:23.689Z,20.18
2022-08-23T07:10:23.589Z,20.19
2022-08-23T07:11:23.582Z,20.31
2022-08-23T07:12:23.537Z,20.29
2022-08-23T07:13:23.646Z,20.37
2022-08-23T07:14:23.483Z,20.48
2022-08-23T07:15:23.457Z,20.66
2022-08-23T07:16:23.487Z,20.80
2022-08-23T07:17:23.408Z,20.82
2022-08-23T07:18:23.381Z,20.74
2022-08-23T07:19:24.274Z,20.81
2022-08-23T07:20:23.331Z,20.87
2022-08-23T07:21:23.301Z,20.88
2022-08-23T07:22:23.275Z,20.75
2022-08-23T07:23:23.249Z,20.69
2022-08-23T07:24:23.226Z,20.65
2022-08-23T07:25:24.129Z,20.50
2022-08-23T07:26:23.199Z,20.51
2022-08-23T07:27:23.145Z,20.60
2022-08-23T07:28:23.127Z,20.66
2022-08-23T07:29:23.093Z,20.72
2022-08-23T07:30:23.077Z,20.77
2022-08-23T07:31:23.128Z,20.81
2022-08-23T07:32:23.022Z,20.88
2022-08-23T07:33:23.059Z,21.00
2022-08-23T07:34:22.998Z,20.97
2022-08-23T07:35:22.942Z,20.97
2022-08-23T07:36:22.913Z,20.99
2022-08-23T07:37:22.894Z,20.92
2022-08-23T07:38:22.859Z,20.96
2022-08-23T07:39:22.891Z,21.09
2022-08-23T07:40:22.852Z,21.03
2022-08-23T07:41:23.748Z,20.93
2022-08-23T07:42:24.236Z,20.88
2022-08-23T07:43:22.737Z,20.85
2022-08-23T07:44:27.065Z,20.97
2022-08-23T07:45:23.921Z,20.95
2022-08-23T07:46:22.675Z,20.82
2022-08-23T07:47:22.632Z,20.85
2022-08-23T07:48:43.195Z,20.82
2022-08-23T07:49:22.631Z,20.82
2022-08-23T07:50:22.613Z,20.82
2022-08-23T07:51:22.532Z,20.92
2022-08-23T07:52:22.501Z,20.78
2022-08-23T07:53:31.265Z,20.67
2022-08-23T07:54:22.738Z,20.70
2022-08-23T07:55:22.427Z,20.70
2022-08-23T07:56:22.397Z,20.81
2022-08-23T07:57:22.372Z,20.78
2022-08-23T07:58:22.345Z,20.75
2022-08-23T07:59:25.476Z,20.67
2022-08-23T08:00:22.383Z,20.70
2022-08-23T08:01:22.342Z,20.80
2022-08-23T08:02:22.244Z,20.87
2022-08-23T08:03:22.215Z,20.95
2022-08-23T08:04:22.190Z,20.85
2022-08-23T08:05:23.910Z,20.77
2022-08-23T08:06:22.144Z,20.77
2022-08-23T08:07:22.129Z,20.75
2022-08-23T08:08:22.086Z,20.77
2022-08-23T08:09:22.060Z,20.67
2022-08-23T08:10:22.070Z,20.70
2022-08-23T08:11:22.163Z,20.78
2022-08-23T08:12:22.043Z,20.75
2022-08-23T08:13:21.984Z,20.84
2022-08-23T08:14:21.928Z,20.82
2022-08-23T08:15:21.903Z,20.93
2022-08-23T08:16:21.992Z,21.14
2022-08-23T08:17:26.811Z,21.03
2022-08-23T08:18:21.840Z,21.07
2022-08-23T08:19:21.815Z,21.11
2022-08-23T08:20:21.851Z,21.05
2022-08-23T08:21:21.746Z,21.11
2022-08-23T08:22:21.729Z,21.20
2022-08-23T08:23:22.606Z,21.24
2022-08-23T08:24:21.675Z,21.32
2022-08-23T08:25:21.645Z,21.39
2022-08-23T08:26:21.616Z,21.35
2022-08-23T08:27:21.725Z,21.51
2022-08-23T08:28:21.568Z,21.52
2022-08-23T08:29:21.679Z,21.51
2022-08-23T08:30:21.508Z,21.48
2022-08-23T08:31:21.540Z,21.43
2022-08-23T08:32:21.456Z,21.40
2022-08-23T08:33:21.435Z,21.50
2022-08-23T08:34:21.412Z,21.50
2022-08-23T08:35:22.641Z,21.51
2022-08-23T08:36:22.508Z,21.54
2022-08-23T08:37:21.383Z,21.69
2022-08-23T08:38:21.340Z,21.57
2022-08-23T08:39:21.272Z,21.73
2022-08-23T08:40:21.393Z,21.72
2022-08-23T08:41:21.351Z,21.72
2022-08-23T08:42:21.235Z,21.77
2022-08-23T08:43:21.167Z,21.80
2022-08-23T08:44:21.366Z,21.85
2022-08-23T08:45:21.118Z,21.83
2022-08-23T08:46:21.197Z,21.83
2022-08-23T08:47:21.339Z,22.04
2022-08-23T08:48:21.038Z,21.96
2022-08-23T08:49:21.007Z,22.06
2022-08-23T08:50:21.015Z,22.11
2022-08-23T08:51:20.954Z,22.15
2022-08-23T08:52:20.930Z,22.22
2022-08-23T08:53:21.176Z,22.35
2022-08-23T08:54:20.873Z,22.39
2022-08-23T08:55:20.849Z,22.48
2022-08-23T08:56:20.823Z,22.50
2022-08-23T08:57:25.515Z,22.60
2022-08-23T08:58:20.768Z,22.75
2022-08-23T08:59:20.940Z,22.72
2022-08-23T09:00:20.718Z,22.70
2022-08-23T09:01:20.749Z,22.69
2022-08-23T09:02:31.734Z,22.72
2022-08-23T09:03:20.700Z,22.70
2022-08-23T09:04:20.621Z,22.63
2022-08-23T09:05:20.746Z,22.63
2022-08-23T09:06:20.556Z,22.59
2022-08-23T09:07:20.531Z,22.60
2022-08-23T09:08:20.514Z,22.63
2022-08-23T09:09:20.488Z,22.69
2022-08-23T09:10:20.460Z,22.69
2022-08-23T09:11:20.539Z,22.66
2022-08-23T09:12:20.408Z,22.70
2022-08-23T09:13:20.382Z,22.78
2022-08-23T09:14:20.357Z,22.85
2022-08-23T09:15:20.358Z,22.83
2022-08-23T09:16:20.485Z,22.83
2022-08-23T09:17:20.811Z,22.94
2022-08-23T09:18:20.251Z,22.98
2022-08-23T09:19:20.223Z,22.96
2022-08-23T09:20:20.198Z,22.99
2022-08-23T09:21:20.242Z,23.13
2022-08-23T09:22:20.268Z,23.21
2022-08-23T09:23:20.120Z,23.31
2022-08-23T09:24:20.099Z,23.37
2022-08-23T09:25:20.069Z,23.54
2022-08-23T09:26:20.051Z,23.59
2022-08-23T09:27:20.052Z,23.58
2022-08-23T09:28:20.201Z,23.55
2022-08-23T09:29:19.969Z,23.68
2022-08-23T09:30:19.940Z,23.68
2022-08-23T09:31:19.980Z,23.65
2022-08-23T09:32:19.893Z,23.65
2022-08-23T09:33:19.925Z,23.58
2022-08-23T09:34:19.919Z,23.58
2022-08-23T09:35:19.845Z,23.65
2022-08-23T09:36:19.821Z,23.63
2022-08-23T09:37:19.776Z,23.63
2022-08-23T09:38:19.753Z,23.63
2022-08-23T09:39:19.735Z,23.61
2022-08-23T09:40:20.520Z,23.54
2022-08-23T09:41:19.692Z,23.61
2022-08-23T09:42:20.663Z,23.54
2022-08-23T09:43:19.666Z,23.55
2022-08-23T09:44:21.515Z,23.50
2022-08-23T09:45:19.592Z,23.58
2022-08-23T09:46:19.722Z,23.66
2022-08-23T09:47:19.520Z,23.73
2022-08-23T09:48:19.492Z,23.77
2022-08-23T09:49:19.477Z,23.77
2022-08-23T09:50:19.467Z,23.83
2022-08-23T09:51:19.431Z,23.87
2022-08-23T09:52:22.151Z,23.95
2022-08-23T09:53:19.378Z,24.05
2022-08-23T09:54:19.497Z,23.99
2022-08-23T09:55:19.328Z,24.03
2022-08-23T09:56:19.299Z,24.05
2022-08-23T09:57:19.262Z,24.11
2022-08-23T09:58:19.487Z,24.20
2022-08-23T09:59:19.211Z,24.23
2022-08-23T10:00:19.217Z,24.38
2022-08-23T10:01:19.282Z,24.32
2022-08-23T10:02:19.150Z,24.39
2022-08-23T10:03:20.159Z,24.57
2022-08-23T10:04:19.129Z,24.47
2022-08-23T10:05:19.073Z,24.53
2022-08-23T10:06:19.103Z,24.40
2022-08-23T10:07:19.018Z,24.54
2022-08-23T10:08:19.004Z,24.70
2022-08-23T10:09:19.011Z,24.76
2022-08-23T10:10:18.946Z,24.88
2022-08-23T10:11:18.924Z,24.89
2022-08-23T10:12:19.018Z,24.80
2022-08-23T10:13:20.701Z,24.92
2022-08-23T10:14:19.139Z,24.96
2022-08-23T10:15:18.825Z,25.04
2022-08-23T10:16:18.833Z,25.08
2022-08-23T10:17:18.764Z,25.28
2022-08-23T10:18:18.770Z,25.13
2022-08-23T10:19:18.719Z,25.03
2022-08-23T10:20:18.764Z,24.85
2022-08-23T10:21:21.120Z,24.88
2022-08-23T10:22:18.677Z,24.68
2022-08-23T10:23:18.652Z,24.48
2022-08-23T10:24:18.593Z,24.39
2022-08-23T10:25:18.637Z,24.32
2022-08-23T10:26:18.657Z,24.35
2022-08-23T10:27:18.565Z,24.35
2022-08-23T10:28:18.504Z,24.47
2022-08-23T10:29:18.560Z,24.57
2022-08-23T10:30:18.468Z,24.76
2022-08-23T10:31:18.444Z,24.92
2022-08-23T10:32:18.727Z,24.92
2022-08-23T10:33:18.803Z,25.03
2022-08-23T10:34:18.384Z,24.98
2022-08-23T10:35:18.331Z,24.99
2022-08-23T10:36:18.383Z,24.91
2022-08-23T10:37:20.180Z,24.93
2022-08-23T10:38:18.422Z,25.01
2022-08-23T10:39:18.261Z,24.91
2022-08-23T10:40:18.285Z,25.04
2022-08-23T10:41:18.186Z,24.88
2022-08-23T10:42:19.049Z,24.96
2022-08-23T10:43:19.103Z,24.98
2022-08-23T10:44:18.339Z,24.95
2022-08-23T10:45:18.102Z,25.06
2022-08-23T10:46:18.376Z,25.11
2022-08-23T10:47:19.560Z,25.13
2022-08-23T10:48:18.057Z,25.14
2022-08-23T10:49:18.042Z,25.13
2022-08-23T10:50:18.028Z,25.22
2022-08-23T10:51:23.058Z,25.21
2022-08-23T10:52:17.978Z,25.11
2022-08-23T10:53:17.951Z,24.99
2022-08-23T10:54:18.552Z,24.99
2022-08-23T10:55:17.874Z,25.23
2022-08-23T10:56:17.893Z,25.10
2022-08-23T10:57:17.803Z,25.18
2022-08-23T10:58:17.919Z,25.31
2022-08-23T10:59:17.842Z,25.33
2022-08-23T11:00:17.734Z,25.28
2022-08-23T11:01:18.380Z,25.29
2022-08-23T11:02:18.762Z,25.33
2022-08-23T11:03:17.666Z,25.31
2022-08-23T11:04:17.680Z,25.10
2022-08-23T11:05:19.041Z,25.22
2022-08-23T11:06:17.606Z,25.18
2022-08-23T11:07:17.637Z,25.31
2022-08-23T11:08:17.605Z,25.40
2022-08-23T11:09:17.557Z,25.48
2022-08-23T11:10:18.200Z,25.47
2022-08-23T11:11:17.547Z,25.59
2022-08-23T11:12:17.536Z,25.73
2022-08-23T11:13:18.518Z,25.70
2022-08-23T11:14:17.394Z,25.63
2022-08-23T11:15:17.368Z,25.53
2022-08-23T11:16:17.539Z,25.60
2022-08-23T11:17:17.337Z,25.60
2022-08-23T11:18:17.339Z,25.65
2022-08-23T11:19:17.338Z,25.69
2022-08-23T11:20:17.253Z,25.70
2022-08-23T11:21:18.081Z,25.80
2022-08-23T11:22:17.236Z,25.81
2022-08-23T11:23:17.195Z,25.73
2022-08-23T11:24:17.708Z,25.81
2022-08-23T11:25:17.151Z,25.85
2022-08-23T11:26:17.137Z,26.09
2022-08-23T11:27:17.101Z,26.13
2022-08-23T11:28:17.095Z,26.16
2022-08-23T11:29:17.057Z,26.18
2022-08-23T11:30:17.273Z,26.22
2022-08-23T11:31:17.127Z,26.21
2022-08-23T11:32:17.187Z,26.21
2022-08-23T11:33:17.175Z,26.25
2022-08-23T11:34:17.049Z,26.16
2022-08-23T11:35:17.453Z,25.99
2022-08-23T11:36:16.966Z,26.00
2022-08-23T11:37:17.070Z,26.13
2022-08-23T11:38:17.272Z,26.10
2022-08-23T11:39:19.651Z,26.22
2022-08-23T11:40:18.436Z,26.29
2022-08-23T11:41:16.843Z,26.47
2022-08-23T11:42:16.831Z,26.52
2022-08-23T11:43:16.740Z,26.52
2022-08-23T11:44:16.730Z,26.40
2022-08-23T11:45:16.667Z,26.29
2022-08-23T11:46:16.693Z,26.36
2022-08-23T11:47:16.662Z,26.36
2022-08-23T11:48:17.514Z,26.23
2022-08-23T11:49:16.590Z,25.99
2022-08-23T11:50:16.564Z,26.06
2022-08-23T11:51:16.561Z,25.99
2022-08-23T11:52:16.537Z,26.03
2022-08-23T11:53:16.873Z,26.21
2022-08-23T11:54:18.860Z,26.26
2022-08-23T11:55:16.446Z,26.15
2022-08-23T11:56:16.419Z,25.98
2022-08-23T11:57:16.398Z,26.05
2022-08-23T11:58:17.663Z,26.03
2022-08-23T11:59:16.350Z,26.16
2022-08-23T12:00:17.694Z,26.34
2022-08-23T12:01:16.309Z,26.36
2022-08-23T12:02:16.383Z,26.36
2022-08-23T12:03:16.331Z,26.48
2022-08-23T12:04:16.233Z,26.47
2022-08-23T12:05:16.263Z,26.38
2022-08-23T12:06:16.191Z,26.37
2022-08-23T12:07:16.165Z,26.29
2022-08-23T12:08:16.135Z,26.33
2022-08-23T12:09:16.130Z,26.40
2022-08-23T12:10:16.238Z,26.29
2022-08-23T12:11:16.075Z,26.33
2022-08-23T12:12:16.047Z,26.40
2022-08-23T12:13:16.022Z,26.52
2022-08-23T12:14:16.013Z,26.56
2022-08-23T12:15:15.980Z,26.63
2022-08-23T12:16:17.549Z,26.80
2022-08-23T12:17:16.934Z,26.85
2022-08-23T12:18:18.331Z,26.68
2022-08-23T12:19:15.894Z,26.62
2022-08-23T12:20:16.893Z,26.56
2022-08-23T12:21:15.838Z,26.53
2022-08-23T12:22:15.865Z,26.48
2022-08-23T12:23:15.787Z,26.31
2022-08-23T12:24:15.769Z,26.22
2022-08-23T12:25:15.738Z,26.15
2022-08-23T12:26:15.731Z,26.19
2022-08-23T12:27:15.760Z,26.21
2022-08-23T12:28:15.676Z,26.28
2022-08-23T12:29:15.654Z,26.52
2022-08-23T12:30:15.625Z,26.65
2022-08-23T12:31:15.632Z,26.63
2022-08-23T12:32:16.341Z,26.70
2022-08-23T12:33:15.557Z,26.85
2022-08-23T12:34:15.534Z,26.99
2022-08-23T12:35:15.516Z,27.05
2022-08-23T12:36:16.709Z,26.93
2022-08-23T12:37:15.470Z,26.62
2022-08-23T12:38:15.502Z,26.60
2022-08-23T12:39:15.413Z,26.63
2022-08-23T12:40:15.445Z,26.59
2022-08-23T12:41:15.379Z,26.52
2022-08-23T12:42:15.357Z,26.34
2022-08-23T12:43:19.754Z,26.26
2022-08-23T12:44:15.367Z,26.03
2022-08-23T12:45:15.287Z,26.02
2022-08-23T12:46:15.323Z,26.00
2022-08-23T12:47:15.241Z,26.02
2022-08-23T12:48:15.231Z,25.91
2022-08-23T12:49:15.259Z,26.02
2022-08-23T12:50:15.278Z,26.06
2022-08-23T12:51:15.151Z,26.00
2022-08-23T12:52:15.119Z,26.10